createdAt,value
2023-02-02T00:00:26.770Z,88.4
2023-02-02T00:01:30.256Z,88.3
2023-02-02T00:02:33.211Z,87.9
2023-02-02T00:03:36.474Z,87.9
2023-02-02T00:04:39.267Z,88
2023-02-02T00:05:41.796Z,87.5
2023-02-02T00:06:45.409Z,87.5
2023-02-02T00:07:48.918Z,87.3
2023-02-02T00:08:51.899Z,87
2023-02-02T00:09:54.952Z,87.4
2023-02-02T00:10:58.100Z,87
2023-02-02T00:12:01.530Z,86.8
2023-02-02T00:13:04.627Z,86.9
2023-02-02T00:14:07.944Z,86.9
2023-02-02T00:15:11.178Z,86.8
2023-02-02T00:16:15.157Z,86.2
2023-02-02T00:17:18.783Z,86.2
2023-02-02T00:18:22.255Z,86
2023-02-02T00:19:25.525Z,85.7
2023-02-02T00:20:27.946Z,85.4
2023-02-02T00:21:31.941Z,85.6
2023-02-02T00:22:35.741Z,84.9
2023-02-02T00:23:38.764Z,85
2023-02-02T00:24:42.143Z,85.2
2023-02-02T00:25:45.544Z,84.8
2023-02-02T00:26:49.178Z,84.9
2023-02-02T00:27:52.381Z,85.3
2023-02-02T00:28:55.366Z,85
2023-02-02T00:29:58.819Z,85.2
2023-02-02T00:31:02.865Z,85.1
2023-02-02T00:32:06.978Z,85.1
2023-02-02T00:33:10.398Z,85
2023-02-02T00:34:13.754Z,85
2023-02-02T00:35:17.732Z,84.9
2023-02-02T00:36:21.021Z,84.8
2023-02-02T00:37:24.225Z,85.1
2023-02-02T00:38:27.638Z,84.9
2023-02-02T00:39:31.498Z,84.9
2023-02-02T00:40:33.662Z,85.3
2023-02-02T00:41:36.761Z,84.8
2023-02-02T00:42:40.492Z,85
2023-02-02T00:43:43.742Z,84.8
2023-02-02T00:44:47.016Z,85.1
2023-02-02T00:45:50.304Z,85
2023-02-02T00:46:53.477Z,85.2
2023-02-02T00:47:56.833Z,85.2
2023-02-02T00:49:00.585Z,85.4
2023-02-02T00:50:04.259Z,85.1
2023-02-02T00:51:07.257Z,85.3
2023-02-02T00:52:10.634Z,85.4
2023-02-02T00:53:13.996Z,85.2
2023-02-02T00:54:17.691Z,85
2023-02-02T00:55:21.105Z,84.8
2023-02-02T00:56:24.107Z,84.9
2023-02-02T00:57:27.468Z,84.8
2023-02-02T00:58:30.339Z,84.7
2023-02-02T00:59:34.101Z,85
2023-02-02T01:00:36.837Z,85.1
2023-02-02T01:01:40.004Z,85
2023-02-02T01:02:43.711Z,85.1
2023-02-02T01:03:47.149Z,84.9
2023-02-02T01:04:50.614Z,84.9
2023-02-02T01:05:53.949Z,84.8
2023-02-02T01:06:57.317Z,84.2
2023-02-02T01:08:00.794Z,84.3
2023-02-02T01:09:03.916Z,84.9
2023-02-02T01:10:07.525Z,84.7
2023-02-02T01:11:10.951Z,84.8
2023-02-02T01:12:14.309Z,84.9
2023-02-02T01:13:16.831Z,84.5
2023-02-02T01:14:19.616Z,84.6
2023-02-02T01:15:24.200Z,84.5
2023-02-02T01:16:29.014Z,84.6
2023-02-02T01:17:32.043Z,84.4
2023-02-02T01:18:35.479Z,83.9
2023-02-02T01:19:38.744Z,84.1
2023-02-02T01:20:42.037Z,84.1
2023-02-02T01:21:45.315Z,83.9
2023-02-02T01:22:48.960Z,84.3
2023-02-02T01:23:52.598Z,84.1
2023-02-02T01:24:56.254Z,83.9
2023-02-02T01:25:59.339Z,83.5
2023-02-02T01:27:02.339Z,83.8
2023-02-02T01:28:05.525Z,83.6
2023-02-02T01:29:08.625Z,83.1
2023-02-02T01:30:11.424Z,83.1
2023-02-02T01:31:13.875Z,82.9
2023-02-02T01:32:17.166Z,82.8
2023-02-02T01:33:19.535Z,83
2023-02-02T01:34:23.240Z,83.2
2023-02-02T01:35:27.657Z,82.7
2023-02-02T01:36:31.130Z,82.8
2023-02-02T01:37:34.505Z,82.6
2023-02-02T01:38:37.568Z,82.9
2023-02-02T01:39:40.557Z,83
2023-02-02T01:40:43.365Z,83.4
2023-02-02T01:41:46.168Z,83.5
2023-02-02T01:42:49.345Z,83.5
2023-02-02T01:43:51.783Z,83.4
2023-02-02T01:44:55.546Z,83.6
2023-02-02T01:45:59.729Z,83.3
2023-02-02T01:47:03.407Z,83.3
2023-02-02T01:48:07.133Z,83.5
2023-02-02T01:49:09.971Z,83.5
2023-02-02T01:50:13.086Z,83.6
2023-02-02T01:51:16.157Z,83.5
2023-02-02T01:52:19.561Z,83.7
2023-02-02T01:53:23.302Z,83.7
2023-02-02T01:54:26.468Z,83.7
2023-02-02T01:55:29.540Z,83.6
2023-02-02T01:56:31.719Z,83.3
2023-02-02T01:57:35.477Z,83.2
2023-02-02T01:58:39.138Z,83.2
2023-02-02T01:59:42.402Z,83.5
2023-02-02T02:00:48.086Z,83.7
2023-02-02T02:01:51.785Z,83.4
2023-02-02T02:02:54.542Z,83.3
2023-02-02T02:03:57.536Z,83.1
2023-02-02T02:05:01.022Z,83.2
2023-02-02T02:06:04.856Z,83.2
2023-02-02T02:07:07.488Z,83
2023-02-02T02:08:10.979Z,83.1
2023-02-02T02:09:13.706Z,83.1
2023-02-02T02:10:17.352Z,83.3
2023-02-02T02:11:20.694Z,83.3
2023-02-02T02:12:24.484Z,83.4
2023-02-02T02:13:27.552Z,83.9
2023-02-02T02:14:31.088Z,83.6
2023-02-02T02:15:33.629Z,83.4
2023-02-02T02:16:37.317Z,83.5
2023-02-02T02:17:41.028Z,83.7
2023-02-02T02:18:44.329Z,83.6
2023-02-02T02:19:47.315Z,83.6
2023-02-02T02:20:51.418Z,83.6
2023-02-02T02:21:54.900Z,83.6
2023-02-02T02:22:58.935Z,83.5
2023-02-02T02:24:02.959Z,83.5
2023-02-02T02:25:05.751Z,83.7
2023-02-02T02:26:08.745Z,83.8
2023-02-02T02:27:12.114Z,83.8
2023-02-02T02:28:15.828Z,83.7
2023-02-02T02:29:18.658Z,83.8
2023-02-02T02:30:21.645Z,83.9
2023-02-02T02:31:25.358Z,83.6
2023-02-02T02:32:28.716Z,83.7
2023-02-02T02:33:31.537Z,83.9
2023-02-02T02:34:34.281Z,83.9
2023-02-02T02:35:37.670Z,84.1
2023-02-02T02:36:40.248Z,84
2023-02-02T02:37:43.646Z,84.2
2023-02-02T02:38:47.458Z,84.1
2023-02-02T02:39:51.253Z,84
2023-02-02T02:40:53.945Z,83.8
2023-02-02T02:41:57.087Z,84.1
2023-02-02T02:42:59.829Z,84.3
2023-02-02T02:44:03.315Z,84.3
2023-02-02T02:45:06.193Z,84.3
2023-02-02T02:46:09.107Z,84.4
2023-02-02T02:47:12.338Z,84.3
2023-02-02T02:48:14.851Z,84.5
2023-02-02T02:49:17.985Z,84.6
2023-02-02T02:50:21.134Z,84.7
2023-02-02T02:51:24.494Z,84.8
2023-02-02T02:52:27.326Z,85
2023-02-02T02:53:30.345Z,85.2
2023-02-02T02:54:34.181Z,85.2
2023-02-02T02:55:37.049Z,85.3
2023-02-02T02:56:40.685Z,85.4
2023-02-02T02:57:44.401Z,85.6
2023-02-02T02:58:47.846Z,85.8
2023-02-02T02:59:50.439Z,85.9
2023-02-02T03:00:53.870Z,86.1
2023-02-02T03:01:57.133Z,86
2023-02-02T03:03:00.474Z,86.3
2023-02-02T03:04:03.271Z,86.1
2023-02-02T03:05:06.534Z,86.2
2023-02-02T03:06:10.543Z,86.3
2023-02-02T03:07:14.049Z,86.2
2023-02-02T03:08:17.152Z,86.2
2023-02-02T03:09:20.926Z,86.5
2023-02-02T03:10:23.381Z,86.6
2023-02-02T03:11:26.772Z,86.5
2023-02-02T03:12:29.628Z,86.5
2023-02-02T03:13:33.445Z,86.5
2023-02-02T03:14:36.544Z,86.3
2023-02-02T03:15:39.802Z,86.4
2023-02-02T03:16:43.287Z,86.5
2023-02-02T03:17:46.086Z,86.4
2023-02-02T03:18:49.151Z,86.3
2023-02-02T03:19:52.002Z,86.2
2023-02-02T03:20:54.802Z,86.1
2023-02-02T03:21:58.263Z,85.9
2023-02-02T03:23:01.329Z,85.9
2023-02-02T03:24:04.369Z,85.9
2023-02-02T03:25:07.169Z,85.8
2023-02-02T03:26:10.525Z,85.7
2023-02-02T03:27:14.111Z,85.7
2023-02-02T03:28:17.388Z,85.6
2023-02-02T03:29:20.444Z,85.3
2023-02-02T03:30:24.267Z,85.3
2023-02-02T03:31:28.054Z,85.1
2023-02-02T03:32:32.373Z,85
2023-02-02T03:33:35.725Z,85
2023-02-02T03:34:39.084Z,84.9
2023-02-02T03:35:41.834Z,84.5
2023-02-02T03:36:44.974Z,84.4
2023-02-02T03:37:47.996Z,84.7
2023-02-02T03:38:50.760Z,85
2023-02-02T03:39:55.260Z,84.9
2023-02-02T03:40:58.920Z,84.7
2023-02-02T03:42:02.381Z,84.8
2023-02-02T03:43:05.779Z,84.6
2023-02-02T03:44:08.918Z,84.6
2023-02-02T03:45:11.973Z,84.6
2023-02-02T03:46:15.154Z,84.5
2023-02-02T03:47:18.734Z,84.5
2023-02-02T03:48:22.081Z,84.6
2023-02-02T03:49:25.154Z,84.8
2023-02-02T03:50:28.419Z,84.7
2023-02-02T03:51:31.598Z,84.8
2023-02-02T03:52:34.675Z,84.7
2023-02-02T03:53:37.397Z,84.6
2023-02-02T03:54:40.763Z,84.5
2023-02-02T03:55:44.544Z,84.2
2023-02-02T03:56:48.348Z,84.2
2023-02-02T03:57:51.096Z,84.1
2023-02-02T03:58:54.732Z,84.2
2023-02-02T03:59:57.732Z,84.3
2023-02-02T04:01:00.887Z,84.4
2023-02-02T04:02:04.234Z,84.6
2023-02-02T04:03:07.064Z,84.7
2023-02-02T04:04:10.673Z,84.9
2023-02-02T04:05:14.020Z,85.3
2023-02-02T04:06:16.879Z,85.6
2023-02-02T04:07:20.572Z,85.8
2023-02-02T04:08:23.573Z,85.8
2023-02-02T04:09:26.947Z,85.9
2023-02-02T04:10:30.216Z,86.2
2023-02-02T04:11:33.529Z,86.1
2023-02-02T04:12:36.959Z,85.9
2023-02-02T04:13:40.049Z,86
2023-02-02T04:14:43.832Z,85.8
2023-02-02T04:15:46.865Z,85.6
2023-02-02T04:16:50.103Z,85.5
2023-02-02T04:17:53.521Z,85.5
2023-02-02T04:18:56.568Z,85.7
2023-02-02T04:20:00.260Z,85.7
2023-02-02T04:21:03.982Z,85.7
2023-02-02T04:22:06.826Z,85.6
2023-02-02T04:23:09.593Z,85.8
2023-02-02T04:24:12.147Z,85.6
2023-02-02T04:25:15.634Z,85.6
2023-02-02T04:26:19.308Z,85.8
2023-02-02T04:27:23.219Z,85.6
2023-02-02T04:28:26.668Z,85.4
2023-02-02T04:29:29.936Z,85.6
2023-02-02T04:30:33.617Z,85.4
2023-02-02T04:31:36.685Z,85.5
2023-02-02T04:32:39.642Z,85.5
2023-02-02T04:33:43.054Z,85.3
2023-02-02T04:34:45.864Z,85.2
2023-02-02T04:35:48.408Z,85.2
2023-02-02T04:36:51.686Z,85
2023-02-02T04:37:54.984Z,85
2023-02-02T04:38:58.180Z,84.9
2023-02-02T04:40:01.614Z,85.2
2023-02-02T04:41:04.725Z,84.6
2023-02-02T04:42:07.999Z,84.3
2023-02-02T04:43:11.205Z,84.2
2023-02-02T04:44:14.517Z,84.1
2023-02-02T04:45:17.301Z,83.8
2023-02-02T04:46:20.783Z,83.9
2023-02-02T04:47:23.788Z,84
2023-02-02T04:48:26.869Z,84
2023-02-02T04:49:29.951Z,84.2
2023-02-02T04:50:33.283Z,84.3
2023-02-02T04:51:36.387Z,83.9
2023-02-02T04:52:39.465Z,84.1
2023-02-02T04:53:41.915Z,84.1
2023-02-02T04:54:45.548Z,83.6
2023-02-02T04:55:48.303Z,83.6
2023-02-02T04:56:51.951Z,83.5
2023-02-02T04:57:55.054Z,83.8
2023-02-02T04:58:58.858Z,83.6
2023-02-02T05:00:02.214Z,83.7
2023-02-02T05:01:05.176Z,83.6
2023-02-02T05:02:08.443Z,83.8
2023-02-02T05:03:11.853Z,84.1
2023-02-02T05:04:15.349Z,83.9
2023-02-02T05:05:18.716Z,83.8
2023-02-02T05:06:22.451Z,83.4
2023-02-02T05:07:25.807Z,83.1
2023-02-02T05:08:28.881Z,83.1
2023-02-02T05:09:32.325Z,83.2
2023-02-02T05:10:35.464Z,83.5
2023-02-02T05:11:38.266Z,83.5
2023-02-02T05:12:41.692Z,83.9
2023-02-02T05:13:44.671Z,83.9
2023-02-02T05:14:48.080Z,83.7
2023-02-02T05:15:51.590Z,83.8
2023-02-02T05:16:55.599Z,83.7
2023-02-02T05:18:00.033Z,83.7
2023-02-02T05:19:03.241Z,83.7
2023-02-02T05:20:06.411Z,83.8
2023-02-02T05:21:09.434Z,83.7
2023-02-02T05:22:12.712Z,83.9
2023-02-02T05:23:16.156Z,84
2023-02-02T05:24:19.205Z,84
2023-02-02T05:25:22.112Z,84.2
2023-02-02T05:26:26.739Z,84.2
2023-02-02T05:27:30.289Z,84.2
2023-02-02T05:28:33.743Z,84.4
2023-02-02T05:29:37.458Z,84.5
2023-02-02T05:30:40.553Z,84.8
2023-02-02T05:31:44.064Z,85
2023-02-02T05:32:46.851Z,85.1
2023-02-02T05:33:50.278Z,85
2023-02-02T05:34:53.668Z,84.8
2023-02-02T05:35:56.751Z,85
2023-02-02T05:36:59.488Z,85.2
2023-02-02T05:38:01.550Z,85.3
2023-02-02T05:39:04.921Z,85.2
2023-02-02T05:40:07.664Z,85.1
2023-02-02T05:41:11.359Z,85
2023-02-02T05:42:14.790Z,85.2
2023-02-02T05:43:18.584Z,85.5
2023-02-02T05:44:24.007Z,85.5
2023-02-02T05:45:28.101Z,85.6
2023-02-02T05:46:31.257Z,85.7
2023-02-02T05:47:34.788Z,85.8
2023-02-02T05:48:37.304Z,86.2
2023-02-02T05:49:40.291Z,86.4
2023-02-02T05:50:43.458Z,86.5
2023-02-02T05:51:46.485Z,86.6
2023-02-02T05:52:49.004Z,86.8
2023-02-02T05:53:52.160Z,86.8
2023-02-02T05:54:55.616Z,87
2023-02-02T05:55:58.642Z,86.9
2023-02-02T05:57:01.779Z,87.3
2023-02-02T05:58:04.623Z,87.2
2023-02-02T05:59:07.818Z,87.2
2023-02-02T06:00:11.294Z,87.1
2023-02-02T06:01:13.750Z,87.2
2023-02-02T06:02:17.178Z,87
2023-02-02T06:03:21.547Z,87
2023-02-02T06:04:24.757Z,87
2023-02-02T06:05:28.917Z,87.1
2023-02-02T06:06:31.740Z,87.2
2023-02-02T06:07:34.607Z,87.2
2023-02-02T06:08:38.590Z,87.2
2023-02-02T06:09:41.321Z,87.2
2023-02-02T06:10:44.713Z,87.3
2023-02-02T06:11:48.075Z,87.4
2023-02-02T06:12:50.867Z,87.6
2023-02-02T06:13:53.299Z,87.6
2023-02-02T06:14:55.462Z,87.5
2023-02-02T06:15:58.860Z,87.6
2023-02-02T06:17:02.045Z,87.5
2023-02-02T06:18:05.626Z,87.6
2023-02-02T06:19:09.100Z,87.6
2023-02-02T06:20:12.103Z,87.6
2023-02-02T06:21:15.528Z,87.6
2023-02-02T06:22:18.517Z,87.7
2023-02-02T06:23:21.776Z,87.7
2023-02-02T06:24:24.489Z,87.7
2023-02-02T06:25:28.160Z,87.8
2023-02-02T06:26:31.350Z,88
2023-02-02T06:27:34.563Z,88.1
2023-02-02T06:28:37.652Z,88.4
2023-02-02T06:29:41.305Z,88.6
2023-02-02T06:30:45.957Z,88.7
2023-02-02T06:31:49.768Z,88.7
2023-02-02T06:32:52.776Z,88.7
2023-02-02T06:33:55.665Z,88.8
2023-02-02T06:34:59.026Z,88.7
2023-02-02T06:36:02.044Z,88.8
2023-02-02T06:37:05.727Z,88.8
2023-02-02T06:38:09.160Z,88.9
2023-02-02T06:39:11.611Z,88.9
2023-02-02T06:40:14.809Z,89.1
2023-02-02T06:41:18.234Z,89
2023-02-02T06:42:23.553Z,89
2023-02-02T06:43:26.273Z,89
2023-02-02T06:44:29.003Z,89
2023-02-02T06:45:31.718Z,89.2
2023-02-02T06:46:35.434Z,89.5
2023-02-02T06:47:39.045Z,89.6
2023-02-02T06:48:41.836Z,89.7
2023-02-02T06:49:45.356Z,89.7
2023-02-02T06:50:49.112Z,89.8
2023-02-02T06:51:51.578Z,90
2023-02-02T06:52:55.384Z,90.1
2023-02-02T06:54:00.691Z,90.2
2023-02-02T06:55:04.359Z,90.2
2023-02-02T06:56:07.142Z,90.2
2023-02-02T06:57:09.959Z,90.4
2023-02-02T06:58:14.057Z,90.3
2023-02-02T06:59:17.108Z,90.3
2023-02-02T07:00:22.106Z,90.2
2023-02-02T07:01:25.628Z,90.1
2023-02-02T07:02:29.043Z,90.1
2023-02-02T07:03:31.968Z,90.1
2023-02-02T07:04:35.676Z,90.1
2023-02-02T07:05:38.204Z,90
2023-02-02T07:06:40.969Z,89.9
2023-02-02T07:07:43.989Z,89.7
2023-02-02T07:09:04.161Z,89.6
2023-02-02T07:10:06.919Z,89.4
2023-02-02T07:11:18.104Z,89.3
2023-02-02T07:12:23.335Z,89.3
2023-02-02T07:13:27.115Z,89
2023-02-02T07:14:30.130Z,88.8
2023-02-02T07:15:33.875Z,88.8
2023-02-02T07:16:36.733Z,88.6
2023-02-02T07:17:40.111Z,88.5
2023-02-02T07:18:43.421Z,88.5
2023-02-02T07:19:46.867Z,88.4
2023-02-02T07:20:50.357Z,88.5
2023-02-02T07:21:53.760Z,88.5
2023-02-02T07:22:57.101Z,88.5
2023-02-02T07:23:59.989Z,88.5
2023-02-02T07:25:03.378Z,88.4
2023-02-02T07:26:06.441Z,88.4
2023-02-02T07:27:09.207Z,88.5
2023-02-02T07:28:12.248Z,88.3
2023-02-02T07:29:15.491Z,88.7
2023-02-02T07:30:19.014Z,88.8
2023-02-02T07:31:22.568Z,88.7
2023-02-02T07:32:26.432Z,89
2023-02-02T07:33:29.252Z,89.2
2023-02-02T07:34:32.697Z,89.3
2023-02-02T07:35:36.041Z,89.1
2023-02-02T07:36:39.395Z,89.5
2023-02-02T07:37:42.720Z,89.4
2023-02-02T07:38:45.806Z,89.8
2023-02-02T07:39:49.622Z,89.7
2023-02-02T07:40:52.716Z,89.8
2023-02-02T07:41:56.341Z,89.9
2023-02-02T07:42:59.630Z,90.1
2023-02-02T07:44:02.487Z,90.2
2023-02-02T07:45:29.379Z,90.7
2023-02-02T07:46:33.579Z,91
2023-02-02T07:47:39.266Z,91.4
2023-02-02T07:48:42.649Z,91.3
2023-02-02T07:49:46.354Z,91.4
2023-02-02T07:50:50.125Z,91.7
2023-02-02T07:51:54.006Z,91.7
2023-02-02T07:52:58.147Z,91.8
2023-02-02T07:54:01.897Z,91.8
2023-02-02T07:55:16.167Z,91.8
2023-02-02T07:56:19.298Z,92.1
2023-02-02T07:57:22.753Z,92.2
2023-02-02T07:58:25.754Z,92.4
2023-02-02T07:59:32.943Z,92.7
2023-02-02T08:00:37.048Z,92.4
2023-02-02T08:01:40.504Z,92.2
2023-02-02T08:02:44.065Z,91.3
2023-02-02T08:03:47.076Z,90.7
2023-02-02T08:04:50.189Z,90.7
2023-02-02T08:05:52.897Z,90.5
2023-02-02T08:06:56.615Z,90.4
2023-02-02T08:08:00.277Z,90.1
2023-02-02T08:09:03.654Z,89.9
2023-02-02T08:10:06.841Z,89.9
2023-02-02T08:11:10.220Z,90
2023-02-02T08:12:13.378Z,90.1
2023-02-02T08:13:17.157Z,90.3
2023-02-02T08:14:20.636Z,90.4
2023-02-02T08:15:25.701Z,90.4
2023-02-02T08:16:30.601Z,90.3
2023-02-02T08:17:33.945Z,90.3
2023-02-02T08:18:37.194Z,90.4
2023-02-02T08:19:40.373Z,90.3
2023-02-02T08:20:43.833Z,90.2
2023-02-02T08:21:46.920Z,90.4
2023-02-02T08:22:50.751Z,90.5
2023-02-02T08:23:54.259Z,90.3
2023-02-02T08:24:57.264Z,90.2
2023-02-02T08:26:00.720Z,90.3
2023-02-02T08:27:04.129Z,90.3
2023-02-02T08:28:07.297Z,90.6
2023-02-02T08:29:10.652Z,90.7
2023-02-02T08:30:13.841Z,90.8
2023-02-02T08:31:18.163Z,90.7
2023-02-02T08:32:21.714Z,90.7
2023-02-02T08:33:24.810Z,90.7
2023-02-02T08:34:28.127Z,90.5
2023-02-02T08:35:31.549Z,90.3
2023-02-02T08:36:34.272Z,90.2
2023-02-02T08:37:36.846Z,90.1
2023-02-02T08:38:40.303Z,90
2023-02-02T08:39:43.681Z,90
2023-02-02T08:40:47.423Z,89.8
2023-02-02T08:41:51.259Z,89.7
2023-02-02T08:42:55.135Z,89.3
2023-02-02T08:43:58.123Z,89.2
2023-02-02T08:46:06.752Z,89
2023-02-02T08:47:11.580Z,88.3
2023-02-02T08:48:15.272Z,88.4
2023-02-02T08:49:18.640Z,87.9
2023-02-02T08:50:21.793Z,87.8
2023-02-02T08:51:25.051Z,87.7
2023-02-02T08:52:29.109Z,88
2023-02-02T08:53:31.569Z,87.7
2023-02-02T08:54:34.727Z,87.5
2023-02-02T08:55:38.260Z,87.5
2023-02-02T08:56:41.647Z,87.5
2023-02-02T08:57:45.039Z,87.2
2023-02-02T08:58:49.130Z,86.5
2023-02-02T08:59:51.877Z,86.3
2023-02-02T09:00:55.288Z,86.3
2023-02-02T09:01:58.995Z,85.8
2023-02-02T09:03:02.444Z,85.2
2023-02-02T09:04:06.272Z,84.8
2023-02-02T09:05:09.747Z,84.3
2023-02-02T09:06:13.411Z,84.1
2023-02-02T09:07:17.424Z,83.8
2023-02-02T09:08:23.165Z,83.3
2023-02-02T09:09:26.577Z,82.8
2023-02-02T09:10:29.760Z,82.4
2023-02-02T09:11:33.165Z,82.1
2023-02-02T09:12:36.917Z,83.1
2023-02-02T09:13:40.586Z,83
2023-02-02T09:14:44.248Z,82.3
2023-02-02T09:15:47.970Z,82.4
2023-02-02T09:16:51.961Z,82.2
2023-02-02T09:17:54.851Z,82.6
2023-02-02T09:18:58.268Z,83
2023-02-02T09:20:01.356Z,81.9
2023-02-02T09:21:04.361Z,81.8
2023-02-02T09:22:07.528Z,83.4
2023-02-02T09:23:10.881Z,83.6
2023-02-02T09:24:13.938Z,81.5
2023-02-02T09:25:17.673Z,82.1
2023-02-02T09:26:21.141Z,82.5
2023-02-02T09:27:25.000Z,82.9
2023-02-02T09:28:28.716Z,83
2023-02-02T09:29:32.188Z,83.4
2023-02-02T09:30:35.850Z,83.9
2023-02-02T09:31:39.529Z,84.4
2023-02-02T09:32:43.058Z,84.6
2023-02-02T09:33:46.406Z,85
2023-02-02T09:34:50.166Z,85.4
2023-02-02T09:35:53.978Z,85.9
2023-02-02T09:36:58.006Z,86.1
2023-02-02T09:38:01.350Z,86.2
2023-02-02T09:39:05.137Z,86.3
2023-02-02T09:40:08.511Z,86.5
2023-02-02T09:41:11.881Z,86.5
2023-02-02T09:42:15.555Z,86.8
2023-02-02T09:43:19.270Z,87.5
2023-02-02T09:44:22.639Z,87.4
2023-02-02T09:45:28.147Z,87.2
2023-02-02T09:46:31.974Z,87.4
2023-02-02T09:47:35.435Z,87.2
2023-02-02T09:48:38.242Z,88
2023-02-02T09:49:41.308Z,88.1
2023-02-02T09:50:45.331Z,88
2023-02-02T09:51:49.369Z,88.2
2023-02-02T09:52:53.025Z,88.1
2023-02-02T09:53:57.351Z,88
2023-02-02T09:55:00.876Z,87.9
2023-02-02T09:56:03.926Z,87.4
2023-02-02T09:57:07.617Z,87.5
2023-02-02T09:58:11.114Z,87.9
2023-02-02T09:59:25.220Z,87.7
2023-02-02T10:00:28.681Z,87.3
2023-02-02T10:01:32.479Z,87
2023-02-02T10:02:36.261Z,86.1
2023-02-02T10:03:39.003Z,85.4
2023-02-02T10:04:42.294Z,84.8
2023-02-02T10:05:45.526Z,84.2
2023-02-02T10:06:48.427Z,83.5
2023-02-02T10:07:51.352Z,82.6
2023-02-02T10:08:54.581Z,82
2023-02-02T10:09:57.994Z,81.7
2023-02-02T10:11:01.493Z,81
2023-02-02T10:12:04.825Z,79.8
2023-02-02T10:13:08.294Z,80.1
2023-02-02T10:14:12.085Z,79.2
2023-02-02T10:15:15.856Z,78.8
2023-02-02T10:16:19.727Z,78.2
2023-02-02T10:17:23.275Z,77.2
2023-02-02T10:18:27.110Z,77.3
2023-02-02T10:19:30.292Z,77.3
2023-02-02T10:20:33.293Z,76.1
2023-02-02T10:21:37.077Z,74.7
2023-02-02T10:22:40.300Z,74.3
2023-02-02T10:23:43.104Z,74.8
2023-02-02T10:24:46.286Z,73.7
2023-02-02T10:25:49.665Z,73.5
2023-02-02T10:26:52.624Z,74.1
2023-02-02T10:27:55.812Z,74.5
2023-02-02T10:28:59.724Z,74.6
2023-02-02T10:30:03.137Z,73
2023-02-02T10:31:07.152Z,72.3
2023-02-02T10:32:11.185Z,72
2023-02-02T10:33:13.816Z,72.7
2023-02-02T10:34:16.688Z,72
2023-02-02T10:35:20.371Z,72.2
2023-02-02T10:36:23.355Z,72.9
2023-02-02T10:37:26.481Z,73
2023-02-02T10:38:29.526Z,73.3
2023-02-02T10:39:33.290Z,72.9
2023-02-02T10:40:36.762Z,73.4
2023-02-02T10:41:40.376Z,74.3
2023-02-02T10:42:43.391Z,75.1
2023-02-02T10:43:46.203Z,74.5
2023-02-02T10:44:49.884Z,74
2023-02-02T10:45:53.846Z,73.6
2023-02-02T10:46:57.713Z,74.2
2023-02-02T10:48:00.880Z,74.2
2023-02-02T10:49:04.150Z,74.4
2023-02-02T10:50:07.573Z,74.7
2023-02-02T10:51:10.357Z,74.9
2023-02-02T10:52:14.434Z,75.7
2023-02-02T10:53:18.187Z,76
2023-02-02T10:54:22.204Z,74.4
2023-02-02T10:55:25.904Z,73.6
2023-02-02T10:56:29.087Z,73.9
2023-02-02T10:57:32.844Z,74.2
2023-02-02T10:58:36.500Z,74.5
2023-02-02T10:59:39.875Z,74.5
2023-02-02T11:00:43.255Z,74
2023-02-02T11:01:46.193Z,73.9
2023-02-02T11:02:49.783Z,74
2023-02-02T11:03:53.709Z,74.4
2023-02-02T11:04:57.391Z,74.6
2023-02-02T11:06:00.549Z,74.8
2023-02-02T11:07:03.719Z,74.6
2023-02-02T11:08:06.333Z,74.3
2023-02-02T11:09:09.799Z,74.1
2023-02-02T11:10:12.517Z,74.3
2023-02-02T11:11:15.663Z,74.1
2023-02-02T11:12:18.773Z,74.4
2023-02-02T11:13:22.103Z,74.3
2023-02-02T11:14:25.223Z,73
2023-02-02T11:15:28.313Z,72.4
2023-02-02T11:16:45.680Z,70.5
2023-02-02T11:17:50.077Z,70.3
2023-02-02T11:18:53.861Z,69.7
2023-02-02T11:19:57.224Z,69
2023-02-02T11:21:00.050Z,69.2
2023-02-02T11:22:03.354Z,69.2
2023-02-02T11:23:07.321Z,69.5
2023-02-02T11:24:11.009Z,69.4
2023-02-02T11:25:14.032Z,69
2023-02-02T11:26:17.750Z,68.6
2023-02-02T11:27:20.893Z,69
2023-02-02T11:28:24.671Z,69.1
2023-02-02T11:29:28.063Z,68.7
2023-02-02T11:30:31.109Z,68.8
2023-02-02T11:31:34.756Z,68.6
2023-02-02T11:32:38.559Z,68.9
2023-02-02T11:33:41.983Z,68.6
2023-02-02T11:34:44.741Z,68.6
2023-02-02T11:35:47.919Z,68
2023-02-02T11:36:51.681Z,67.7
2023-02-02T11:37:55.375Z,67.4
2023-02-02T11:38:59.437Z,67.3
2023-02-02T11:40:02.540Z,67.8
2023-02-02T11:41:05.500Z,68.1
2023-02-02T11:42:08.840Z,68.4
2023-02-02T11:43:12.319Z,69
2023-02-02T11:44:15.067Z,69.1
2023-02-02T11:45:17.238Z,68.2
2023-02-02T11:46:22.028Z,68.6
2023-02-02T11:47:25.181Z,68.9
2023-02-02T11:48:28.933Z,68.9
2023-02-02T11:49:32.075Z,68.5
2023-02-02T11:50:35.197Z,68.8
2023-02-02T11:51:38.049Z,68.9
2023-02-02T11:52:41.515Z,73.2
2023-02-02T11:53:44.893Z,79.5
2023-02-02T11:54:48.309Z,70.7
2023-02-02T11:55:51.777Z,67.9
2023-02-02T11:56:54.799Z,67.7
2023-02-02T11:57:58.141Z,67.8
2023-02-02T11:59:01.782Z,67.6
2023-02-02T12:00:04.780Z,67.9
2023-02-02T12:01:08.513Z,66.9
2023-02-02T12:02:12.200Z,67.9
2023-02-02T12:03:15.418Z,67.9
2023-02-02T12:04:18.871Z,67.5
2023-02-02T12:05:22.407Z,67.6
2023-02-02T12:06:25.934Z,67.5
2023-02-02T12:07:29.377Z,67.4
2023-02-02T12:08:32.829Z,67.4
2023-02-02T12:09:35.910Z,67
2023-02-02T12:10:39.189Z,67.3
2023-02-02T12:11:42.892Z,68
2023-02-02T12:12:46.600Z,68
2023-02-02T12:13:49.591Z,67.6
2023-02-02T12:14:52.771Z,67.2
2023-02-02T12:15:56.682Z,66.5
2023-02-02T12:17:00.225Z,67
2023-02-02T12:18:03.425Z,66.7
2023-02-02T12:19:06.966Z,66.8
2023-02-02T12:20:10.719Z,66.7
2023-02-02T12:21:14.237Z,66.6
2023-02-02T12:22:17.769Z,66.8
2023-02-02T12:23:21.777Z,66
2023-02-02T12:24:25.061Z,66.7
2023-02-02T12:25:29.135Z,66.6
2023-02-02T12:26:32.081Z,66.5
2023-02-02T12:27:35.875Z,66.1
2023-02-02T12:28:39.259Z,64.9
2023-02-02T12:29:42.608Z,65.3
2023-02-02T12:30:45.984Z,64.2
2023-02-02T12:31:49.491Z,64.3
2023-02-02T12:32:53.514Z,64.4
2023-02-02T12:33:57.608Z,63.8
2023-02-02T12:35:00.612Z,63.7
2023-02-02T12:36:03.636Z,63.2
2023-02-02T12:37:07.387Z,62.2
2023-02-02T12:38:10.438Z,61.8
2023-02-02T12:39:13.842Z,62.2
2023-02-02T12:40:16.667Z,62.7
2023-02-02T12:41:19.847Z,62.5
2023-02-02T12:42:23.776Z,62.2
2023-02-02T12:43:28.383Z,61.3
2023-02-02T12:44:31.824Z,61.1
2023-02-02T12:45:35.168Z,60.5
2023-02-02T12:46:38.641Z,60.5
2023-02-02T12:47:41.730Z,60.1
2023-02-02T12:48:44.533Z,60.4
2023-02-02T12:49:47.994Z,58.8
2023-02-02T12:50:51.573Z,57.7
2023-02-02T12:51:54.573Z,58.3
2023-02-02T12:52:58.043Z,58
2023-02-02T12:54:56.234Z,57.2
2023-02-02T12:56:02.218Z,57.7
2023-02-02T12:57:07.107Z,57.1
2023-02-02T12:58:10.813Z,56.7
2023-02-02T12:59:13.601Z,57.6
2023-02-02T13:00:17.229Z,57.6
2023-02-02T13:01:21.293Z,57.3
2023-02-02T13:02:24.675Z,57.1
2023-02-02T13:03:28.342Z,56.2
2023-02-02T13:04:31.493Z,56
2023-02-02T13:05:35.328Z,55.6
2023-02-02T13:06:38.779Z,56.6
2023-02-02T13:07:42.513Z,56.1
2023-02-02T13:08:45.755Z,56.2
2023-02-02T13:09:49.595Z,56.6
2023-02-02T13:10:53.351Z,56
2023-02-02T13:11:57.095Z,56.1
2023-02-02T13:13:00.222Z,56.2
2023-02-02T13:14:03.626Z,55.7
2023-02-02T13:15:06.866Z,54.8
2023-02-02T13:16:10.310Z,54.9
2023-02-02T13:17:13.704Z,54.9
2023-02-02T13:18:17.717Z,54.6
2023-02-02T13:19:21.030Z,54.7
2023-02-02T13:20:25.708Z,54.8
2023-02-02T13:21:29.719Z,54.3
2023-02-02T13:22:33.411Z,54.6
2023-02-02T13:23:37.215Z,54.9
2023-02-02T13:24:41.235Z,55.5
2023-02-02T13:25:44.420Z,55.7
2023-02-02T13:26:48.126Z,55.7
2023-02-02T13:27:52.004Z,55.5
2023-02-02T13:28:55.832Z,56
2023-02-02T13:29:58.874Z,56.2
2023-02-02T13:31:06.293Z,56.2
2023-02-02T13:32:10.212Z,56.1
2023-02-02T13:33:13.711Z,56.1
2023-02-02T13:34:16.789Z,55.8
2023-02-02T13:35:19.911Z,55.3
2023-02-02T13:36:24.417Z,54.8
2023-02-02T13:37:28.123Z,54.5
2023-02-02T13:38:31.838Z,54.6
2023-02-02T13:39:35.296Z,55
2023-02-02T13:40:39.619Z,55.2
2023-02-02T13:41:43.720Z,55
2023-02-02T13:42:46.275Z,55.4
2023-02-02T13:43:49.144Z,55
2023-02-02T13:44:52.848Z,55.4
2023-02-02T13:45:56.352Z,55
2023-02-02T13:46:59.683Z,55.1
2023-02-02T13:48:03.387Z,55.1
2023-02-02T13:49:07.421Z,55.5
2023-02-02T13:50:11.148Z,55.9
2023-02-02T13:51:14.861Z,56.4
2023-02-02T13:52:17.889Z,57
2023-02-02T13:53:20.928Z,57
2023-02-02T13:54:24.324Z,57.5
2023-02-02T13:55:29.115Z,57.8
2023-02-02T13:56:32.201Z,57.9
2023-02-02T13:57:35.006Z,58.2
2023-02-02T13:58:38.620Z,58.4
2023-02-02T13:59:42.359Z,58.7
2023-02-02T14:00:46.096Z,58.5
2023-02-02T14:01:49.448Z,58.6
2023-02-02T14:02:53.900Z,59.2
2023-02-02T14:03:57.337Z,59.4
2023-02-02T14:05:00.132Z,59.7
2023-02-02T14:06:04.137Z,60.1
2023-02-02T14:07:07.622Z,59.8
2023-02-02T14:08:11.361Z,60.1
2023-02-02T14:09:14.398Z,60.2
2023-02-02T14:10:17.550Z,60.5
2023-02-02T14:11:21.568Z,60.8
2023-02-02T14:12:25.115Z,61.4
2023-02-02T14:13:28.150Z,61.5